Time;durP1;ratioP1;P1;durP2;ratioP2;P2;SDS_P1;SDS_P2;PMS_P1;PMS_P2;Temp;Humidity;BMP_temperature;BMP_pressure;BME280_temperature;BME280_humidity;BME280_pressure;Samples;Min_cycle;Max_cycle;Signal;HPM_P1;HPM_P2
2022/09/20 00:01:13;;;;;;;1.47;1.10;;;;;;;11.12;91.40;102200.53;5115736;28;20006;-85
2022/09/20 00:03:44;;;;;;;1.30;1.17;;;;;;;11.13;91.02;102204.03;5114708;28;20102;-85
2022/09/20 00:06:12;;;;;;;1.20;1.10;;;;;;;11.12;91.28;102197.06;5115580;28;20103;-86
2022/09/20 00:08:39;;;;;;;1.20;1.10;;;;;;;11.12;91.03;102197.06;5115160;28;20027;-85
2022/09/20 00:11:05;;;;;;;;;;;;;;;11.11;91.08;102190.16;5115201;28;20077;-85
2022/09/20 00:13:31;;;;;;;;;;;;;;;11.08;91.22;102183.22;5115240;28;20369;-85
2022/09/20 00:15:56;;;;;;;2.28;1.90;;;;;;;11.05;91.65;102188.38;5115014;28;20010;-85
2022/09/20 00:18:22;;;;;;;1.60;1.50;;;;;;;11.02;91.46;102187.50;5114342;28;20015;-85
2022/09/20 00:20:49;;;;;;;1.30;1.20;;;;;;;11.00;91.49;102190.09;5114842;28;20047;-86
2022/09/20 00:23:15;;;;;;;1.25;1.15;;;;;;;11.01;91.61;102180.56;5114935;28;20031;-85
2022/09/20 00:25:41;;;;;;;1.50;1.40;;;;;;;11.01;91.81;102173.63;5136055;22;20135;-86
2022/09/20 00:28:08;;;;;;;1.10;1.10;;;;;;;11.01;91.61;102176.25;5074714;28;20017;-85
2022/09/20 00:30:34;;;;;;;0.88;0.88;;;;;;;11.01;91.41;102185.78;5074613;28;20063;-85
2022/09/20 00:32:59;;;;;;;1.00;1.00;;;;;;;11.00;91.22;102182.28;5073402;28;20023;-85
2022/09/20 00:35:26;;;;;;;2.47;1.80;;;;;;;10.99;91.78;102187.50;5074445;28;20031;-85
2022/09/20 00:37:52;;;;;;;1.95;1.77;;;;;;;10.99;91.85;102190.09;5074026;28;20457;-85
2022/09/20 00:40:20;;;;;;;1.40;1.30;;;;;;;10.97;91.68;102190.94;5073820;28;20031;-86
2022/09/20 00:42:46;;;;;;;1.40;1.30;;;;;;;10.98;91.66;102202.19;5073703;28;20035;-86
2022/09/20 00:45:19;;;;;;;1.40;1.30;;;;;;;10.99;91.63;102201.34;5073609;28;20020;-85
2022/09/20 00:47:51;;;;;;;1.20;1.20;;;;;;;10.99;91.61;102201.34;5074058;28;20044;-86
2022/09/20 00:50:32;;;;;;;1.17;1.17;;;;;;;10.97;91.66;102198.75;5074206;28;20020;-86
2022/09/20 00:53:10;;;;;;;1.50;1.40;;;;;;;10.96;91.76;102194.41;5073291;28;20021;-86
2022/09/20 00:55:42;;;;;;;1.30;1.10;;;;;;;10.94;91.57;102197.88;5074055;28;20024;-86
2022/09/20 00:58:08;;;;;;;1.63;1.30;;;;;;;10.93;91.46;102198.72;5073758;28;20028;-85
2022/09/20 01:00:34;;;;;;;1.40;1.30;;;;;;;10.92;91.31;102196.97;5073392;28;20020;-86
2022/09/20 01:03:05;;;;;;;1.40;1.30;;;;;;;10.88;91.26;102193.50;5073869;28;20025;-86
2022/09/20 01:05:49;;;;;;;1.40;1.30;;;;;;;10.85;91.48;102196.06;5073931;28;20429;-86
2022/09/20 01:08:16;;;;;;;1.40;1.30;;;;;;;10.82;91.35;102201.25;5072910;28;20023;-85
2022/09/20 01:10:41;;;;;;;1.30;1.20;;;;;;;10.78;91.51;102196.91;5073147;28;20036;-85
2022/09/20 01:13:19;;;;;;;1.30;1.20;;;;;;;10.77;91.46;102187.38;5073738;28;20086;-85
2022/09/20 01:15:47;;;;;;;2.28;1.33;;;;;;;10.77;91.44;102198.63;5073587;28;20044;-86
2022/09/20 01:18:13;;;;;;;1.85;1.25;;;;;;;10.76;91.52;102199.47;5073723;28;20025;-86
2022/09/20 01:21:00;;;;;;;1.25;1.23;;;;;;;10.75;91.42;102194.28;5072760;28;20029;-85
2022/09/20 01:24:05;;;;;;;0.88;0.88;;;;;;;10.78;91.81;102192.56;5072954;28;20346;-86
2022/09/20 01:27:12;;;;;;;2.28;1.70;;;;;;;10.74;92.04;102189.97;5033756;28;20037;-86
2022/09/20 01:30:05;;;;;;;1.55;1.45;;;;;;;10.72;91.67;102189.97;5032569;28;20036;-86
2022/09/20 01:32:58;;;;;;;1.45;1.35;;;;;;;10.74;91.72;102188.25;5033534;28;20029;-86
2022/09/20 01:35:27;;;;;;;1.40;1.30;;;;;;;10.73;91.53;102194.28;5031687;28;20040;-85
2022/09/20 01:38:23;;;;;;;0.93;0.93;;;;;;;10.75;91.68;102189.94;5032481;28;20465;-85
2022/09/20 01:40:51;;;;;;;;;;;;;;;10.77;91.71;102195.19;5032997;28;20371;-85
2022/09/20 01:43:25;;;;;;;1.70;1.38;;;;;;;10.74;91.86;102193.44;5032629;28;19960;-85
2022/09/20 01:45:51;;;;;;;1.35;1.20;;;;;;;10.77;91.61;102192.59;5032974;28;20474;-86
2022/09/20 01:48:35;;;;;;;2.77;1.33;;;;;;;10.80;91.72;102195.19;5033272;28;20029;-85
2022/09/20 01:51:20;;;;;;;1.25;1.15;;;;;;;10.80;91.76;102193.47;5032895;28;20481;-86
2022/09/20 01:54:10;;;;;;;1.63;1.52;;;;;;;10.81;91.84;102197.78;5033062;28;20470;-85
2022/09/20 01:56:51;;;;;;;2.08;1.17;;;;;;;10.83;91.65;102200.38;5032267;28;20406;-85
2022/09/20 01:59:39;;;;;;;1.30;1.20;;;;;;;10.83;91.82;102197.78;5033238;28;20464;-85
2022/09/20 02:02:13;;;;;;;1.52;1.42;;;;;;;10.83;91.63;102192.59;5033033;28;20063;-85
2022/09/20 02:04:55;;;;;;;1.88;1.15;;;;;;;10.82;92.12;102198.66;5031740;28;20033;-85
2022/09/20 02:07:53;;;;;;;0.90;0.90;;;;;;;10.84;91.67;102196.94;5032762;28;20068;-86
2022/09/20 02:10:28;;;;;;;1.33;1.23;;;;;;;10.85;91.87;102190.03;5031915;28;20092;-86
2022/09/20 02:13:08;;;;;;;1.15;1.05;;;;;;;10.85;91.83;102197.81;5032590;28;20112;-86
2022/09/20 02:15:44;;;;;;;1.48;1.10;;;;;;;10.84;91.82;102191.75;5032750;28;20120;-86
2022/09/20 02:18:36;;;;;;;1.83;1.27;;;;;;;10.84;91.74;102193.47;5031412;28;20095;-85
2022/09/20 02:21:21;;;;;;;1.20;1.17;;;;;;;10.84;91.91;102190.88;5033255;28;20026;-86
2022/09/20 02:24:02;;;;;;;0.90;0.90;;;;;;;10.84;91.92;102189.13;5031598;28;20437;-85
2022/09/20 02:26:45;;;;;;;1.40;0.95;;;;;;;10.82;91.81;102189.16;5032530;28;20030;-86
2022/09/20 02:29:24;;;;;;;0.80;0.80;;;;;;;10.80;92.05;102184.81;5032961;28;20036;-86
2022/09/20 02:32:23;;;;;;;1.00;1.00;;;;;;;10.78;92.04;102189.13;5032126;28;20069;-86
2022/09/20 02:35:13;;;;;;;0.82;0.82;;;;;;;10.77;91.70;102189.97;5033759;28;20037;-86
2022/09/20 02:37:59;;;;;;;0.80;0.80;;;;;;;10.77;91.78;102183.03;5036435;28;20033;-86
2022/09/20 02:40:47;;;;;;;0.95;0.70;;;;;;;10.77;91.75;102184.78;5036914;28;20034;-85
2022/09/20 02:43:26;;;;;;;0.80;0.80;;;;;;;10.77;91.79;102188.25;5036704;28;20068;-85
2022/09/20 02:46:10;;;;;;;0.70;0.70;;;;;;;10.78;91.85;102184.78;5035633;28;20037;-85
2022/09/20 02:48:53;;;;;;;0.68;0.68;;;;;;;10.78;91.76;102189.97;5036442;28;20025;-85
2022/09/20 02:51:21;;;;;;;0.65;0.65;;;;;;;10.78;91.80;102196.91;5036657;28;20021;-85
2022/09/20 02:53:54;;;;;;;0.63;0.63;;;;;;;10.77;91.85;102193.44;5035628;28;20042;-85
2022/09/20 02:56:49;;;;;;;0.80;0.80;;;;;;;10.79;91.83;102185.66;5036118;28;20045;-85
2022/09/20 02:59:37;;;;;;;0.40;0.40;;;;;;;10.79;91.82;102186.53;5035764;28;20025;-86
2022/09/20 03:02:18;;;;;;;0.88;0.88;;;;;;;10.80;92.10;102190.88;5036567;28;20541;-86
2022/09/20 03:05:01;;;;;;;0.73;0.73;;;;;;;10.80;91.89;102190.00;5036066;28;20049;-86
2022/09/20 03:07:38;;;;;;;1.13;0.60;;;;;;;10.79;91.67;102183.94;5035443;28;20040;-86
2022/09/20 03:10:21;;;;;;;0.90;0.90;;;;;;;10.77;91.94;102177.84;5036209;28;20045;-85
2022/09/20 03:13:12;;;;;;;0.85;0.80;;;;;;;10.77;92.44;102185.66;5036032;28;20025;-86
2022/09/20 03:16:04;;;;;;;0.90;0.77;;;;;;;10.75;92.17;102178.72;5035966;28;20425;-86
2022/09/20 03:18:50;;;;;;;0.82;0.82;;;;;;;10.77;92.01;102180.44;5036107;28;20025;-86
2022/09/20 03:21:58;;;;;;;0.82;0.57;;;;;;;10.78;91.85;102183.94;5034580;28;20524;-84
2022/09/20 03:24:46;;;;;;;0.60;0.60;;;;;;;10.78;91.64;102181.34;5043456;28;20112;-86
2022/09/20 03:27:23;;;;;;;0.50;0.50;;;;;;;10.78;91.85;102183.94;5075310;28;20029;-86
2022/09/20 03:29:59;;;;;;;0.65;0.63;;;;;;;10.75;92.18;102183.91;5075847;28;20051;-86
2022/09/20 03:32:45;;;;;;;0.70;0.70;;;;;;;10.73;92.45;102180.44;5075863;28;20021;-85
2022/09/20 03:35:38;;;;;;;2.13;1.10;;;;;;;10.70;92.11;102178.69;5074980;28;20024;-86
2022/09/20 03:38:31;;;;;;;0.88;0.88;;;;;;;10.73;92.06;102180.44;5075663;28;20032;-86
2022/09/20 03:41:29;;;;;;;2.15;0.98;;;;;;;10.73;92.26;102183.91;5075375;28;20362;-85
2022/09/20 03:44:19;;;;;;;0.88;0.88;;;;;;;10.74;92.22;102184.75;5075240;28;20036;-86
2022/09/20 03:46:47;;;;;;;0.60;0.60;;;;;;;10.73;92.26;102183.03;5074391;28;20029;-85
2022/09/20 03:49:39;;;;;;;0.80;0.80;;;;;;;10.74;92.39;102187.34;5074036;28;20025;-85
2022/09/20 03:52:31;;;;;;;0.50;0.50;;;;;;;10.74;92.23;102187.34;5037829;28;20043;-85
2022/09/20 03:55:21;;;;;;;0.98;0.70;;;;;;;10.74;92.38;102188.25;5075226;28;20400;-85
2022/09/20 03:58:02;;;;;;;0.80;0.80;;;;;;;10.74;92.63;102188.25;5075262;28;20030;-85
2022/09/20 04:01:04;;;;;;;0.80;0.80;;;;;;;10.75;92.50;102189.09;5075035;28;20037;-85
2022/09/20 04:03:39;;;;;;;2.10;1.40;;;;;;;10.76;92.86;102183.06;5057652;28;20405;-85
2022/09/20 04:06:28;;;;;;;1.20;1.10;;;;;;;10.76;92.85;102180.44;5075258;28;20032;-85
2022/09/20 04:09:12;;;;;;;1.23;1.10;;;;;;;10.75;92.73;102169.19;5074872;28;20061;-86
2022/09/20 04:12:02;;;;;;;1.08;1.00;;;;;;;10.77;92.84;102177.00;5074783;28;20023;-85
2022/09/20 04:14:47;;;;;;;1.20;1.00;;;;;;;10.78;92.51;102184.78;5074849;28;20032;-85
2022/09/20 04:17:19;;;;;;;0.85;0.85;;;;;;;10.80;92.48;102184.81;5073576;28;20025;-85
2022/09/20 04:19:51;;;;;;;0.90;0.90;;;;;;;10.82;92.36;102180.47;5074369;28;20035;-85
2022/09/20 04:22:20;;;;;;;0.80;0.80;;;;;;;10.83;92.31;102179.63;5074660;28;20028;-85
2022/09/20 04:24:56;;;;;;;0.77;0.77;;;;;;;10.85;92.33;102175.31;5073557;28;20048;-85
2022/09/20 04:27:37;;;;;;;0.82;0.80;;;;;;;10.86;92.52;102176.19;5074740;28;20149;-85
2022/09/20 04:30:16;;;;;;;0.80;0.80;;;;;;;10.86;92.54;102186.56;5074639;28;20024;-85
2022/09/20 04:32:59;;;;;;;1.13;1.02;;;;;;;10.88;92.54;102179.63;5074169;28;20024;-85
2022/09/20 04:38:19;;;;;;;0.70;0.70;;;;;;;10.89;92.18;102170.97;5074176;28;20174;-85
2022/09/20 04:40:53;;;;;;;0.73;0.73;;;;;;;10.89;92.62;102177.06;5074106;28;20028;-85
2022/09/20 04:43:51;;;;;;;0.63;0.63;;;;;;;10.90;92.34;102177.91;5074142;28;20033;-85
2022/09/20 04:46:56;;;;;;;0.70;0.70;;;;;;;10.88;92.32;102188.31;5073578;28;20020;-85
2022/09/20 04:49:41;;;;;;;0.95;0.95;;;;;;;10.87;92.33;102185.69;5074378;28;20021;-85
2022/09/20 04:52:21;;;;;;;1.00;0.73;;;;;;;10.88;92.35;102188.31;5073566;28;20451;-85
2022/09/20 04:55:23;;;;;;;1.17;0.80;;;;;;;10.87;92.10;102189.16;5073887;28;20033;-85
2022/09/20 04:57:59;;;;;;;0.73;0.70;;;;;;;10.86;92.31;102194.38;5073047;28;20484;-85
2022/09/20 05:00:34;;;;;;;0.70;0.70;;;;;;;10.84;92.46;102194.34;5073384;28;20051;-85
2022/09/20 05:03:39;;;;;;;1.00;1.00;;;;;;;10.85;92.30;102196.06;5073391;28;20472;-85
2022/09/20 05:06:23;;;;;;;0.60;0.60;;;;;;;10.85;91.95;102203.88;5072494;28;20036;-85
2022/09/20 05:09:12;;;;;;;0.82;0.80;;;;;;;10.81;92.19;102200.41;5073859;28;20358;-85
2022/09/20 05:12:01;;;;;;;0.88;0.88;;;;;;;10.82;92.59;102204.72;5073394;28;20048;-85
2022/09/20 05:14:49;;;;;;;1.13;1.02;;;;;;;10.81;92.26;102203.00;5073024;28;20024;-85
2022/09/20 05:17:25;;;;;;;0.80;0.80;;;;;;;10.81;92.35;102202.09;5073792;28;20028;-85
2022/09/20 05:20:05;;;;;;;0.80;0.80;;;;;;;10.79;92.25;102202.09;5072509;28;20392;-85
2022/09/20 05:23:02;;;;;;;0.70;0.70;;;;;;;10.76;92.26;102212.47;5073864;28;20021;-85
2022/09/20 05:25:46;;;;;;;1.10;0.93;;;;;;;10.73;92.08;102211.59;5068513;28;20516;-85
2022/09/20 05:28:15;;;;;;;0.73;0.70;;;;;;;10.69;92.16;102215.03;5072467;28;20036;-85
2022/09/20 05:30:48;;;;;;;0.80;0.80;;;;;;;10.65;92.07;102212.41;5073232;28;20037;-85
2022/09/20 05:33:36;;;;;;;1.10;1.10;;;;;;;10.62;91.98;102216.72;5072665;28;20017;-85
2022/09/20 05:36:31;;;;;;;1.08;1.02;;;;;;;10.58;92.15;102213.25;5073287;28;20039;-85
2022/09/20 05:39:26;;;;;;;1.15;1.10;;;;;;;10.57;92.27;102221.00;5072816;28;20140;-85
2022/09/20 05:42:01;;;;;;;1.00;1.00;;;;;;;10.56;92.48;102219.25;5072137;28;20032;-85
2022/09/20 05:45:06;;;;;;;1.00;0.90;;;;;;;10.58;92.24;102231.41;5072891;28;20029;-85
2022/09/20 05:47:55;;;;;;;1.08;0.98;;;;;;;10.61;92.34;102223.63;5055293;28;20033;-85
2022/09/20 05:50:50;;;;;;;0.90;0.90;;;;;;;10.62;92.36;102224.53;5073206;28;20472;-85
2022/09/20 05:53:53;;;;;;;1.00;1.00;;;;;;;10.66;92.31;102234.94;5073112;28;20476;-85
2022/09/20 05:56:56;;;;;;;1.10;0.93;;;;;;;10.72;92.90;102236.69;5072169;28;20043;-86
2022/09/20 05:59:52;;;;;;;1.13;0.88;;;;;;;10.76;92.59;102234.97;5073995;28;20153;-91
2022/09/20 06:02:50;;;;;;;1.00;1.00;;;;;;;10.80;92.65;102241.94;5071597;28;20120;-84
2022/09/20 06:05:33;;;;;;;0.90;0.90;;;;;;;10.85;92.42;102242.81;5052798;28;20052;-86
2022/09/20 06:08:15;;;;;;;0.90;0.90;;;;;;;10.90;92.50;102248.94;5052600;28;20033;-86
2022/09/20 06:11:22;;;;;;;0.90;0.90;;;;;;;10.93;92.67;102253.25;5052604;28;20394;-87
2022/09/20 06:14:14;;;;;;;0.93;0.93;;;;;;;10.94;92.73;102253.25;5053050;28;20033;-87
2022/09/20 06:16:47;;;;;;;0.82;0.82;;;;;;;10.96;92.81;102258.50;5065995;28;20075;-86
2022/09/20 06:19:33;;;;;;;0.60;0.60;;;;;;;10.99;92.80;102257.63;5073306;28;20025;-86
2022/09/20 06:22:07;;;;;;;0.60;0.60;;;;;;;11.01;92.99;102255.91;5072936;28;20107;-87
2022/09/20 06:24:38;;;;;;;1.23;1.13;;;;;;;11.03;93.75;102256.78;5072121;28;20047;-87
2022/09/20 06:27:27;;;;;;;1.20;1.10;;;;;;;11.03;93.26;102256.78;5072686;28;20024;-87
2022/09/20 06:29:58;;;;;;;0.90;0.90;;;;;;;11.03;93.52;102255.06;5071982;28;20028;-86
2022/09/20 06:32:23;;;;;;;1.10;1.10;;;;;;;11.05;93.26;102255.06;5072020;28;20036;-84
2022/09/20 06:34:49;;;;;;;1.73;1.30;;;;;;;11.05;93.72;102257.66;5072889;28;20033;-90
2022/09/20 06:43:18;;;;;;;2.00;1.70;;;;;;;11.12;93.92;102257.69;5073424;28;20047;-88
2022/09/20 06:45:44;;;;;;;1.67;1.57;;;;;;;11.15;93.50;102266.38;5071473;28;20465;-84
2022/09/20 06:48:11;;;;;;;1.53;1.43;;;;;;;11.19;93.76;102262.94;5070675;28;20095;-85
2022/09/20 06:50:37;;;;;;;1.48;1.27;;;;;;;11.25;93.48;102262.94;5070773;28;20111;-85
2022/09/20 06:53:03;;;;;;;1.27;1.20;;;;;;;11.38;93.47;102266.47;5070395;28;20093;-84
2022/09/20 06:55:36;;;;;;;1.40;1.30;;;;;;;11.84;94.22;102264.03;5071045;28;20503;-85
2022/09/20 06:58:02;;;;;;;1.13;1.05;;;;;;;12.00;92.65;102270.16;5063687;28;20029;-94
2022/09/20 07:00:27;;;;;;;1.30;1.20;;;;;;;11.97;92.06;102264.03;5073806;28;20028;-88
2022/09/20 07:02:55;;;;;;;1.27;1.03;;;;;;;11.93;92.00;102267.53;5073605;28;20329;-91
2022/09/20 07:05:21;;;;;;;0.80;0.80;;;;;;;11.89;92.04;102267.50;5073688;28;20028;-92
2022/09/20 07:07:46;;;;;;;1.37;1.17;;;;;;;11.88;91.92;102270.97;5074004;28;20082;-94
2022/09/20 07:10:13;;;;;;;1.10;1.10;;;;;;;11.87;91.98;102269.22;5073700;28;20077;-92
2022/09/20 07:12:39;;;;;;;0.88;0.88;;;;;;;11.89;92.01;102262.31;5073580;28;20020;-92
2022/09/20 07:15:05;;;;;;;0.77;0.77;;;;;;;11.90;92.05;102256.25;5073847;28;20081;-94
2022/09/20 07:17:51;;;;;;;0.60;0.60;;;;;;;11.95;92.09;102263.16;5072029;28;20443;-94
2022/09/20 07:20:16;;;;;;;1.00;1.00;;;;;;;11.99;91.95;102260.59;5073641;28;20075;-92
2022/09/20 07:22:41;;;;;;;1.47;1.37;;;;;;;12.04;91.95;102260.63;5077777;28;20024;-93
2022/09/20 07:25:22;;;;;;;1.93;1.60;;;;;;;12.12;91.71;102271.91;5076700;28;20040;-92
2022/09/20 07:27:54;;;;;;;1.65;1.55;;;;;;;12.23;91.92;102266.69;5076880;28;20029;-94
2022/09/20 07:30:19;;;;;;;1.45;1.35;;;;;;;12.37;91.94;102266.72;5075691;28;20020;-84
2022/09/20 07:32:44;;;;;;;1.20;1.10;;;;;;;12.43;91.99;102271.06;5076435;28;20492;-90
2022/09/20 07:35:11;;;;;;;1.97;1.30;;;;;;;12.52;91.31;102271.91;5076552;28;20029;-90
2022/09/20 07:37:40;;;;;;;1.42;1.33;;;;;;;12.56;90.46;102275.38;5076773;28;20028;-86
2022/09/20 07:40:07;;;;;;;1.67;1.30;;;;;;;12.62;90.84;102277.13;5071500;28;20045;-86
2022/09/20 07:42:32;;;;;;;2.28;1.48;;;;;;;12.69;90.47;102283.19;5069376;28;20044;-86
2022/09/20 07:44:58;;;;;;;1.60;1.50;;;;;;;12.74;89.97;102284.91;5075293;28;20029;-87
2022/09/20 07:47:25;;;;;;;1.60;1.50;;;;;;;12.80;89.64;102284.94;5074634;28;20056;-86
2022/09/20 07:49:51;;;;;;;1.70;1.60;;;;;;;12.89;89.82;102294.44;5074673;28;20047;-85
2022/09/20 07:52:17;;;;;;;3.00;1.90;;;;;;;12.97;89.32;102286.63;5076177;28;20116;-80
2022/09/20 07:54:42;;;;;;;1.67;1.57;;;;;;;13.02;89.71;102297.03;5074592;28;20108;-88
2022/09/20 07:57:08;;;;;;;2.90;1.80;;;;;;;13.02;88.52;102290.09;5075686;28;20025;-89
2022/09/20 07:59:33;;;;;;;3.37;1.60;;;;;;;13.01;89.25;102293.56;5075367;28;20017;-90
2022/09/20 08:01:59;;;;;;;1.30;1.20;;;;;;;13.05;88.98;102297.91;5075648;28;20025;-90
2022/09/20 08:04:25;;;;;;;1.15;1.05;;;;;;;13.12;89.26;102296.13;5076266;28;20028;-90
2022/09/20 08:06:50;;;;;;;1.63;1.10;;;;;;;13.20;89.06;102298.72;5076189;28;20365;-86
2022/09/20 08:09:16;;;;;;;0.93;0.93;;;;;;;13.27;89.05;102300.47;5074520;28;20079;-85
2022/09/20 08:11:42;;;;;;;0.80;0.80;;;;;;;13.34;88.70;102304.78;5076608;28;20029;-85
2022/09/20 08:14:15;;;;;;;3.03;1.67;;;;;;;13.36;86.39;102304.75;5075557;28;20032;-85
2022/09/20 08:16:43;;;;;;;3.83;2.00;;;;;;;13.40;87.59;102301.31;5076162;28;20017;-85
2022/09/20 08:19:22;;;;;;;2.55;1.40;;;;;;;13.49;88.02;102300.41;5075327;28;20032;-85
2022/09/20 08:21:49;;;;;;;1.70;1.20;;;;;;;13.54;88.14;102301.25;5075403;28;20556;-85
2022/09/20 08:24:32;;;;;;;3.42;1.90;;;;;;;13.65;86.37;102293.38;5074416;28;20378;-85
2022/09/20 08:26:58;;;;;;;2.33;1.60;;;;;;;13.69;86.82;102306.41;5075397;28;20037;-85
2022/09/20 08:29:41;;;;;;;2.27;1.47;;;;;;;13.78;87.09;102302.00;5075046;28;20048;-85
2022/09/20 08:32:06;;;;;;;1.25;1.17;;;;;;;13.85;85.97;102301.97;5075085;28;20016;-85
2022/09/20 08:34:53;;;;;;;0.80;0.80;;;;;;;14.00;86.24;102302.75;5074918;28;20033;-85
2022/09/20 08:37:19;;;;;;;0.80;0.80;;;;;;;14.07;85.48;102304.44;5074326;28;20024;-84
2022/09/20 08:39:53;;;;;;;3.60;1.37;;;;;;;14.15;83.79;102305.25;5074795;28;20415;-85
2022/09/20 08:42:37;;;;;;;1.00;1.00;;;;;;;14.25;84.63;102313.00;5075025;28;20024;-85
2022/09/20 08:45:12;;;;;;;2.95;1.45;;;;;;;14.33;83.53;102312.09;5073976;28;20028;-85
2022/09/20 08:47:47;;;;;;;1.05;0.80;;;;;;;14.43;84.51;102314.63;5074946;28;20024;-85
2022/09/20 08:50:16;;;;;;;1.05;1.05;;;;;;;14.56;81.87;102320.63;5074597;28;20028;-85
2022/09/20 08:52:48;;;;;;;0.85;0.80;;;;;;;14.66;82.70;102330.13;5073884;28;20020;-85
2022/09/20 08:55:24;;;;;;;0.88;0.82;;;;;;;14.76;82.27;102326.56;5074462;28;20066;-85
2022/09/20 08:57:51;;;;;;;;;;;;;;;14.84;81.49;102326.50;5074156;28;20465;-85
2022/09/20 09:00:20;;;;;;;2.00;1.27;;;;;;;14.89;74.86;102329.06;5074500;28;19912;-85
2022/09/20 09:02:46;;;;;;;4.90;1.85;;;;;;;14.85;75.13;102332.59;5074248;28;20020;-85
2022/09/20 09:05:33;;;;;;;1.98;1.27;;;;;;;14.91;79.05;102320.34;5073633;28;20063;-85
2022/09/20 09:08:03;;;;;;;1.20;1.10;;;;;;;15.06;78.64;102323.69;5074311;28;20059;-85
2022/09/20 09:10:36;;;;;;;2.22;1.30;;;;;;;15.19;75.59;102324.41;5074580;28;20044;-85
2022/09/20 09:13:03;;;;;;;2.67;1.20;;;;;;;15.38;78.44;102325.06;5073544;28;20029;-85
2022/09/20 09:15:30;;;;;;;;;;;;;;;15.56;71.48;102322.22;5074738;28;20049;-85
2022/09/20 09:17:56;;;;;;;4.45;1.70;;;;;;;15.51;71.53;102328.41;5074158;28;19916;-85
2022/09/20 09:20:23;;;;;;;2.45;1.40;;;;;;;15.44;72.47;102320.63;5073166;28;20056;-85
2022/09/20 09:23:04;;;;;;;4.22;1.80;;;;;;;15.20;68.63;102320.91;5074084;28;20036;-85
2022/09/20 09:25:33;;;;;;;1.90;1.30;;;;;;;15.16;74.06;102324.44;5073570;28;20512;-85
2022/09/20 09:28:12;;;;;;;2.67;1.30;;;;;;;15.19;74.34;102317.44;5073266;28;20028;-85
2022/09/20 09:30:43;;;;;;;2.20;0.90;;;;;;;15.23;73.20;102324.34;5073825;28;20362;-85
2022/09/20 09:33:26;;;;;;;1.58;0.70;;;;;;;15.24;74.10;102312.16;5072978;28;20036;-85
2022/09/20 09:36:07;;;;;;;0.70;0.60;;;;;;;15.30;75.50;102322.53;5074056;28;20054;-85
2022/09/20 09:38:35;;;;;;;1.85;0.70;;;;;;;15.34;74.54;102320.75;5074040;28;20086;-86
2022/09/20 09:41:07;;;;;;;1.20;0.75;;;;;;;15.34;71.71;102326.88;5072932;28;20020;-85
2022/09/20 09:43:39;;;;;;;2.00;1.08;;;;;;;15.26;70.37;102323.44;5069508;28;20028;-85
2022/09/20 09:46:20;;;;;;;3.00;0.90;;;;;;;15.17;69.39;102327.06;5073577;28;20023;-86
2022/09/20 09:48:48;;;;;;;0.73;0.65;;;;;;;15.14;71.80;102329.69;5072908;28;20414;-85
2022/09/20 09:51:19;;;;;;;1.02;0.60;;;;;;;15.12;73.92;102328.84;5073808;28;20021;-86
2022/09/20 09:53:47;;;;;;;0.47;0.40;;;;;;;15.09;74.93;102329.75;5073453;28;20035;-86
2022/09/20 09:56:31;;;;;;;4.10;0.90;;;;;;;14.96;66.56;102339.47;5073359;28;20473;-86
2022/09/20 09:59:16;;;;;;;2.28;1.05;;;;;;;14.75;68.33;102337.91;5073810;28;20389;-86
2022/09/20 10:01:55;;;;;;;3.42;0.90;;;;;;;14.71;71.50;102336.19;5072698;28;20081;-86
2022/09/20 10:04:40;;;;;;;2.28;1.02;;;;;;;14.62;68.71;102338.84;5073724;28;20036;-86
2022/09/20 10:07:13;;;;;;;5.97;1.53;;;;;;;14.52;68.10;102344.16;5073537;28;20025;-86
2022/09/20 10:10:00;;;;;;;3.60;1.13;;;;;;;14.40;67.48;102341.63;5072937;28;20130;-86
2022/09/20 10:12:38;;;;;;;2.75;1.20;;;;;;;14.36;68.36;102340.78;5073307;28;20515;-86
2022/09/20 10:15:06;;;;;;;3.45;1.17;;;;;;;14.32;70.56;102346.91;5072681;28;20028;-85
2022/09/20 10:17:51;;;;;;;4.13;1.50;;;;;;;14.30;68.94;102339.97;5073562;28;20046;-86
2022/09/20 10:21:08;;;;;;;5.53;1.50;;;;;;;14.23;66.55;102340.91;5073624;28;20104;-86
2022/09/20 10:23:55;;;;;;;2.67;1.05;;;;;;;14.32;69.07;102344.28;4991278;28;20181;-86
2022/09/20 10:26:26;;;;;;;3.00;1.38;;;;;;;14.38;69.19;102343.38;5068354;28;20048;-86
2022/09/20 10:29:25;;;;;;;1.50;0.90;;;;;;;14.45;67.41;102345.09;5073447;28;20025;-85
2022/09/20 10:31:59;;;;;;;1.45;1.17;;;;;;;14.54;69.09;102349.34;5073436;28;20036;-85
2022/09/20 10:34:36;;;;;;;1.85;1.00;;;;;;;14.59;69.26;102342.38;5073214;28;20107;-85
2022/09/20 10:37:01;;;;;;;2.78;1.02;;;;;;;14.52;67.10;102335.47;5072544;28;20064;-86
2022/09/20 10:39:33;;;;;;;2.17;1.07;;;;;;;14.55;67.32;102331.97;5072830;28;20048;-86
2022/09/20 10:45:17;;;;;;;0.75;0.73;;;;;;;14.76;70.09;102336.16;5072747;28;20027;-84
2022/09/20 10:47:58;;;;;;;1.85;0.68;;;;;;;14.85;70.43;102340.44;5073178;28;20021;-86
2022/09/20 10:50:47;;;;;;;0.70;0.70;;;;;;;15.01;71.27;102335.91;5072220;28;20139;-86
2022/09/20 10:53:38;;;;;;;1.98;0.77;;;;;;;15.16;70.33;102324.44;5073073;28;20392;-86
2022/09/20 10:56:15;;;;;;;1.85;0.80;;;;;;;15.29;70.90;102331.25;5074846;28;20051;-85
2022/09/20 10:59:05;;;;;;;1.33;0.88;;;;;;;15.40;65.09;102331.16;5076227;28;20042;-86
2022/09/20 11:01:47;;;;;;;2.72;0.90;;;;;;;15.41;68.28;102340.75;5076965;28;20020;-86
2022/09/20 11:04:16;;;;;;;3.10;1.10;;;;;;;15.31;66.66;102339.97;5076034;28;20037;-86
2022/09/20 11:06:54;;;;;;;2.08;0.88;;;;;;;15.22;66.24;102338.31;5076767;28;20024;-86
2022/09/20 11:09:26;;;;;;;2.47;1.17;;;;;;;15.36;67.80;102338.19;5076659;28;20028;-86
2022/09/20 11:11:58;;;;;;;1.30;1.00;;;;;;;15.52;66.15;102341.47;5075563;28;20104;-85
2022/09/20 11:14:41;;;;;;;1.25;0.90;;;;;;;15.79;66.20;102342.00;5076692;28;20063;-86
2022/09/20 11:17:14;;;;;;;2.63;1.23;;;;;;;16.16;66.07;102338.91;5076646;28;20029;-86
2022/09/20 11:20:01;;;;;;;2.28;0.85;;;;;;;16.31;62.20;102350.03;5075561;28;20042;-86
2022/09/20 11:22:38;;;;;;;2.58;1.10;;;;;;;16.03;59.82;102348.69;5076579;28;20484;-86
2022/09/20 11:25:14;;;;;;;2.58;1.23;;;;;;;15.60;61.07;102354.44;5076097;28;20385;-86
2022/09/20 11:27:45;;;;;;;3.03;1.20;;;;;;;15.43;63.13;102350.28;5076126;28;20024;-86
2022/09/20 11:30:19;;;;;;;1.50;0.90;;;;;;;15.34;64.67;102354.75;5076213;28;20027;-86
2022/09/20 11:33:06;;;;;;;2.10;1.05;;;;;;;15.38;65.84;102353.84;5075441;28;20039;-86
2022/09/20 11:35:41;;;;;;;1.77;1.10;;;;;;;15.44;65.69;102359.00;5076151;28;20605;-86
2022/09/20 11:38:20;;;;;;;1.48;0.80;;;;;;;15.54;66.59;102355.38;5075882;28;20020;-86
2022/09/20 11:40:54;;;;;;;1.88;0.63;;;;;;;15.70;66.22;102360.44;5075508;28;20031;-86
2022/09/20 11:43:24;;;;;;;1.42;0.90;;;;;;;15.86;64.85;102354.16;5076169;28;20028;-86
2022/09/20 11:45:54;;;;;;;2.17;1.10;;;;;;;15.93;65.19;102361.91;5075963;28;20020;-86
2022/09/20 11:48:28;;;;;;;1.98;1.25;;;;;;;15.90;63.79;102368.94;5075164;28;20028;-86
2022/09/20 11:51:21;;;;;;;2.25;1.00;;;;;;;15.83;63.66;102372.50;5075787;28;20077;-86
2022/09/20 11:54:14;;;;;;;3.47;1.00;;;;;;;15.65;63.33;102373.59;5074833;28;20029;-86
2022/09/20 11:56:39;;;;;;;1.48;0.90;;;;;;;15.50;64.06;102366.78;5075755;28;20024;-86
2022/09/20 11:59:21;;;;;;;2.23;1.00;;;;;;;15.37;63.48;102368.66;5075867;28;20372;-86
2022/09/20 12:01:46;;;;;;;1.33;0.60;;;;;;;15.29;64.82;102371.38;5075139;28;20032;-86
2022/09/20 12:04:22;;;;;;;3.93;1.17;;;;;;;15.17;64.27;102386.31;5075752;28;20051;-86
2022/09/20 12:07:01;;;;;;;2.88;1.10;;;;;;;15.04;64.78;102377.72;5075300;28;20044;-86
2022/09/20 12:09:36;;;;;;;1.20;0.80;;;;;;;14.95;65.73;102379.56;5074837;28;20055;-86
2022/09/20 12:12:21;;;;;;;2.20;0.80;;;;;;;14.90;66.43;102375.25;5075452;28;20078;-86
2022/09/20 12:14:54;;;;;;;2.78;0.80;;;;;;;14.81;64.83;102384.88;5074531;28;20040;-86
2022/09/20 12:17:45;;;;;;;1.83;0.82;;;;;;;14.65;65.22;102376.28;5075390;28;20100;-85
2022/09/20 12:20:31;;;;;;;2.80;1.00;;;;;;;14.62;65.59;102380.66;5075487;28;20043;-86
2022/09/20 12:23:34;;;;;;;1.33;0.65;;;;;;;14.70;66.33;102375.41;5074522;28;20380;-85
2022/09/20 12:26:03;;;;;;;1.42;0.70;;;;;;;14.77;66.79;102377.09;5075044;28;20060;-86
2022/09/20 12:28:43;;;;;;;1.90;0.68;;;;;;;14.87;67.54;102373.50;5075290;28;20037;-86